Time;durP1;ratioP1;P1;durP2;ratioP2;P2;SDS_P1;SDS_P2;PMS_P1;PMS_P2;Temp;Humidity;BMP_temperature;BMP_pressure;BME280_temperature;BME280_humidity;BME280_pressure;Samples;Min_cycle;Max_cycle;Signal;HPM_P1;HPM_P2
2021/07/17 00:01:39;;;;;;;14.85;12.00;;;588.90;2432.00;;;;;;5105251;28;20472;-73
2021/07/17 00:04:05;;;;;;;18.08;12.98;;;589.10;2432.00;;;;;;5111596;28;20419;-72
2021/07/17 00:06:32;;;;;;;17.70;13.98;;;589.10;2432.00;;;;;;5099471;28;20024;-72
2021/07/17 00:08:58;;;;;;;18.27;14.93;;;589.10;2432.00;;;;;;5093457;28;20375;-72
2021/07/17 00:11:24;;;;;;;18.15;14.55;;;588.90;2432.00;;;;;;5112108;28;20028;-73
2021/07/17 00:13:50;;;;;;;18.88;13.88;;;588.90;2432.00;;;;;;5111328;28;20038;-74
2021/07/17 00:16:17;;;;;;;17.90;13.48;;;588.90;2432.00;;;;;;5090461;28;20479;-73
2021/07/17 00:18:44;;;;;;;16.02;13.73;;;589.00;2432.00;;;;;;5100477;28;20020;-73
2021/07/17 00:21:10;;;;;;;17.95;14.52;;;588.80;2432.00;;;;;;5111129;28;20515;-73
2021/07/17 00:23:36;;;;;;;17.25;13.30;;;588.80;2432.00;;;;;;5111752;28;20081;-73
2021/07/17 00:26:03;;;;;;;18.98;14.05;;;588.90;2432.00;;;;;;5079536;28;20020;-73
2021/07/17 00:28:30;;;;;;;19.00;12.75;;;588.80;2432.00;;;;;;5090943;28;20028;-72
2021/07/17 00:30:55;;;;;;;18.13;13.98;;;588.80;2432.00;;;;;;5083395;28;20027;-72
2021/07/17 00:33:21;;;;;;;14.82;11.73;;;588.80;2432.00;;;;;;5090508;28;20524;-73
2021/07/17 00:35:47;;;;;;;14.63;10.85;;;588.80;2432.00;;;;;;5104681;28;20088;-72
2021/07/17 00:38:13;;;;;;;17.85;13.07;;;564.10;2432.00;;;;;;5111516;28;20062;-73
2021/07/17 00:40:38;;;;;;;15.98;11.88;;;588.80;2432.00;;;;;;5111871;28;20019;-72
2021/07/17 00:43:04;;;;;;;24.17;13.10;;;588.80;2432.00;;;;;;5111635;28;20115;-73
2021/07/17 00:45:30;;;;;;;18.20;12.60;;;564.10;2432.00;;;;;;5107529;28;20477;-73
2021/07/17 00:47:56;;;;;;;13.57;11.95;;;564.10;2432.00;;;;;;5107173;28;20043;-73
2021/07/17 00:50:22;;;;;;;13.77;12.30;;;564.00;2432.00;;;;;;5111998;28;20473;-73
2021/07/17 00:52:48;;;;;;;19.13;11.85;;;563.90;2432.00;;;;;;5111310;28;20044;-73
2021/07/17 00:55:15;;;;;;;16.88;13.85;;;563.90;2432.00;;;;;;5111841;28;20035;-73
2021/07/17 00:57:45;;;;;;;17.40;11.85;;;563.90;2432.00;;;;;;5111167;28;20095;-72
2021/07/17 01:00:13;;;;;;;24.80;12.55;;;563.90;2432.00;;;;;;5111478;28;20478;-72
2021/07/17 01:02:52;;;;;;;14.18;12.00;;;563.90;2432.00;;;;;;5093512;28;20023;-72
2021/07/17 01:05:19;;;;;;;13.85;11.00;;;563.90;2432.00;;;;;;5111068;28;20377;-73
2021/07/17 01:07:46;;;;;;;14.23;11.27;;;564.00;2432.00;;;;;;5112012;28;20023;-73
2021/07/17 01:10:13;;;;;;;16.35;12.15;;;564.10;2432.00;;;;;;5111372;28;20020;-73
2021/07/17 01:12:39;;;;;;;17.85;11.57;;;564.00;2432.00;;;;;;5111805;28;20036;-73
2021/07/17 01:15:06;;;;;;;17.20;12.30;;;564.10;2432.00;;;;;;5111873;28;20023;-73
2021/07/17 01:17:32;;;;;;;14.60;10.77;;;588.80;2432.00;;;;;;5111249;28;20043;-72
2021/07/17 01:19:58;;;;;;;14.23;10.93;;;588.80;2432.00;;;;;;5111698;28;20023;-72
2021/07/17 01:22:24;;;;;;;14.20;11.20;;;589.00;2432.00;;;;;;5111268;28;20103;-73
2021/07/17 01:24:51;;;;;;;14.93;10.95;;;588.90;2432.00;;;;;;5111671;28;20034;-73
2021/07/17 01:27:18;;;;;;;11.55;10.15;;;589.00;2432.00;;;;;;5111072;28;20122;-73
2021/07/17 01:29:45;;;;;;;18.52;11.30;;;589.00;2432.00;;;;;;5113279;28;20106;-72
2021/07/17 01:32:12;;;;;;;19.55;10.65;;;589.10;2432.00;;;;;;5114981;28;20026;-72
2021/07/17 01:34:38;;;;;;;14.60;9.50;;;589.10;2432.00;;;;;;5114771;28;20661;-72
2021/07/17 01:37:04;;;;;;;14.07;10.90;;;589.10;2432.00;;;;;;5114662;28;20084;-73
2021/07/17 01:39:30;;;;;;;11.35;9.10;;;589.10;2432.00;;;;;;5114506;28;20069;-72
2021/07/17 01:41:56;;;;;;;15.75;9.75;;;589.10;2432.00;;;;;;5115195;28;20054;-73
2021/07/17 01:44:22;;;;;;;13.93;10.27;;;589.20;2432.00;;;;;;5114858;28;20051;-73
2021/07/17 01:46:48;;;;;;;15.30;10.57;;;589.20;2432.00;;;;;;5115152;28;20030;-72
2021/07/17 01:49:13;;;;;;;12.85;9.95;;;589.30;2432.00;;;;;;5108767;28;20058;-72
2021/07/17 01:51:39;;;;;;;18.05;10.70;;;589.30;2432.00;;;;;;5113046;28;20052;-73
2021/07/17 01:54:05;;;;;;;15.32;10.60;;;589.30;2432.00;;;;;;5114863;28;20360;-72
2021/07/17 01:56:31;;;;;;;13.63;9.90;;;589.30;2432.00;;;;;;5115091;28;20485;-72
2021/07/17 01:58:57;;;;;;;13.82;11.02;;;589.20;2432.00;;;;;;5114707;28;20024;-73
2021/07/17 02:01:25;;;;;;;13.70;9.95;;;589.30;2432.00;;;;;;5096672;28;20030;-73
2021/07/17 02:03:51;;;;;;;15.68;10.27;;;589.30;2432.00;;;;;;5096031;28;20016;-72
2021/07/17 02:06:28;;;;;;;13.43;10.70;;;589.30;2432.00;;;;;;5113924;28;20028;-72
2021/07/17 02:08:55;;;;;;;14.48;11.23;;;589.20;2432.00;;;;;;5114465;28;20057;-72
2021/07/17 02:11:21;;;;;;;15.82;10.50;;;589.20;2432.00;;;;;;5110762;28;20024;-73
2021/07/17 02:13:52;;;;;;;12.70;10.02;;;589.20;2432.00;;;;;;5114447;28;20024;-73
2021/07/17 02:16:20;;;;;;;15.63;9.90;;;589.20;2432.00;;;;;;5113885;28;20023;-73
2021/07/17 02:18:47;;;;;;;14.07;10.27;;;589.20;2432.00;;;;;;5110407;28;20347;-73
2021/07/17 02:21:15;;;;;;;13.38;10.15;;;589.20;2432.00;;;;;;5113842;28;20024;-72
2021/07/17 02:31:09;;;;;;;14.00;10.52;;;589.20;2432.00;;;;;;5105372;28;20140;-72
2021/07/17 02:34:12;;;;;;;14.45;10.27;;;589.10;2432.00;;;;;;5095767;28;20026;-72
2021/07/17 02:36:39;;;;;;;14.15;10.73;;;589.10;2432.00;;;;;;5093426;28;20389;-73
2021/07/17 02:39:06;;;;;;;15.75;10.70;;;589.10;2432.00;;;;;;5095634;28;20415;-72
2021/07/17 02:41:31;;;;;;;13.68;11.18;;;589.20;2432.00;;;;;;5095180;28;20102;-73
2021/07/17 02:43:57;;;;;;;15.85;10.13;;;589.20;2432.00;;;;;;5106772;28;20034;-72
2021/07/17 02:46:23;;;;;;;14.73;10.82;;;589.20;2432.00;;;;;;5113634;28;20018;-73
2021/07/17 02:48:49;;;;;;;13.38;11.68;;;589.20;2432.00;;;;;;5107575;28;20024;-73
2021/07/17 02:51:15;;;;;;;15.00;10.82;;;589.10;2432.00;;;;;;5113370;28;20050;-72
2021/07/17 02:53:41;;;;;;;14.40;11.98;;;589.20;2432.00;;;;;;5114167;28;20012;-73
2021/07/17 02:56:07;;;;;;;12.70;11.07;;;589.10;2432.00;;;;;;5113812;28;20474;-73
2021/07/17 02:58:32;;;;;;;15.80;11.63;;;589.10;2432.00;;;;;;5109154;28;20024;-72
2021/07/17 03:00:58;;;;;;;14.70;11.77;;;589.10;2432.00;;;;;;5113993;28;20478;-73
2021/07/17 03:03:24;;;;;;;13.80;11.32;;;589.10;2432.00;;;;;;5114215;28;20020;-73
2021/07/17 03:05:50;;;;;;;16.17;11.93;;;589.00;2432.00;;;;;;5113216;28;20031;-73
2021/07/17 03:08:20;;;;;;;15.02;11.55;;;589.00;2432.00;;;;;;5113708;28;20028;-73
2021/07/17 03:10:46;;;;;;;13.57;10.50;;;589.00;2432.00;;;;;;5104741;28;20020;-73
2021/07/17 03:13:11;;;;;;;13.60;10.85;;;589.00;2432.00;;;;;;5095244;28;20036;-73
2021/07/17 03:15:37;;;;;;;14.18;11.57;;;589.00;2432.00;;;;;;5106822;28;20039;-73
2021/07/17 03:18:03;;;;;;;15.50;11.38;;;589.00;2432.00;;;;;;5105601;28;20036;-73
2021/07/17 03:20:29;;;;;;;12.13;10.23;;;589.00;2432.00;;;;;;5110095;28;20046;-74
2021/07/17 03:22:55;;;;;;;14.18;10.80;;;589.00;2432.00;;;;;;5102618;28;20534;-74
2021/07/17 03:25:21;;;;;;;11.02;9.82;;;589.10;2432.00;;;;;;5113891;28;20505;-73
2021/07/17 03:27:47;;;;;;;13.02;9.55;;;589.00;2432.00;;;;;;5113285;28;20024;-73
2021/07/17 03:30:13;;;;;;;14.85;9.75;;;589.10;2432.00;;;;;;5113795;28;20032;-73
2021/07/17 03:32:39;;;;;;;13.35;11.05;;;589.00;2432.00;;;;;;5113457;28;20428;-73
2021/07/17 03:35:05;;;;;;;12.77;10.30;;;589.00;2432.00;;;;;;5113595;28;20019;-74
2021/07/17 03:37:31;;;;;;;12.60;10.32;;;589.10;2432.00;;;;;;5113157;28;20072;-73
2021/07/17 03:39:57;;;;;;;15.02;9.95;;;589.10;2432.00;;;;;;5098668;28;20020;-73
2021/07/17 03:42:23;;;;;;;15.55;11.32;;;589.10;2432.00;;;;;;5113265;28;20428;-72
2021/07/17 03:44:49;;;;;;;12.45;10.40;;;589.10;2432.00;;;;;;5094288;28;20031;-74
2021/07/17 03:47:14;;;;;;;12.32;10.65;;;589.20;2432.00;;;;;;5102962;28;20028;-73
2021/07/17 03:49:40;;;;;;;12.90;9.82;;;589.20;2432.00;;;;;;5112493;28;20032;-73
2021/07/17 03:52:06;;;;;;;14.85;10.32;;;589.20;2432.00;;;;;;5108361;28;20066;-73
2021/07/17 03:54:32;;;;;;;12.93;9.95;;;589.20;2432.00;;;;;;5112597;28;20114;-73
2021/07/17 03:56:58;;;;;;;12.73;9.65;;;589.20;2432.00;;;;;;5094038;28;20040;-73
2021/07/17 03:59:24;;;;;;;14.07;10.50;;;589.30;2432.00;;;;;;5112629;28;20518;-73
2021/07/17 04:01:51;;;;;;;14.05;9.50;;;589.30;2432.00;;;;;;5112653;28;20055;-72
2021/07/17 04:04:18;;;;;;;14.02;10.00;;;589.30;2432.00;;;;;;5112409;28;20083;-73
2021/07/17 04:06:43;;;;;;;14.00;10.07;;;589.30;2432.00;;;;;;5112246;28;20067;-72
2021/07/17 04:09:09;;;;;;;13.65;9.27;;;589.30;2432.00;;;;;;5112719;28;20404;-73
2021/07/17 04:11:35;;;;;;;11.68;9.38;;;589.30;2432.00;;;;;;5112222;28;20066;-73
2021/07/17 04:14:00;;;;;;;11.98;10.77;;;589.30;2432.00;;;;;;5112645;28;20497;-73
2021/07/17 04:16:26;;;;;;;12.10;9.45;;;589.30;2432.00;;;;;;5112244;28;20035;-73
2021/07/17 04:18:52;;;;;;;14.20;9.45;;;589.40;2432.00;;;;;;5112614;28;20046;-73
2021/07/17 04:21:18;;;;;;;13.02;9.63;;;589.40;2432.00;;;;;;5111978;28;20047;-73
2021/07/17 04:23:44;;;;;;;12.68;8.75;;;589.50;2432.00;;;;;;5112645;28;20055;-73
2021/07/17 04:26:09;;;;;;;12.38;9.13;;;589.40;2432.00;;;;;;5112057;28;20055;-73
2021/07/17 04:28:35;;;;;;;10.35;7.88;;;589.40;2432.00;;;;;;5094428;28;20035;-73
2021/07/17 04:31:02;;;;;;;10.60;8.35;;;589.40;2432.00;;;;;;5112228;28;20072;-73
2021/07/17 04:33:28;;;;;;;14.63;7.65;;;589.40;2432.00;;;;;;5111976;28;20106;-73
2021/07/17 04:35:54;;;;;;;10.55;8.57;;;589.40;2432.00;;;;;;5112347;28;20102;-73
2021/07/17 04:38:20;;;;;;;12.02;8.63;;;589.60;2432.00;;;;;;5111746;28;20019;-73
2021/07/17 04:40:46;;;;;;;11.27;8.63;;;589.60;2432.00;;;;;;5112577;28;20481;-73
2021/07/17 04:43:12;;;;;;;14.60;9.85;;;589.60;2432.00;;;;;;5097720;28;20028;-73
2021/07/17 04:45:38;;;;;;;13.45;9.63;;;589.70;2432.00;;;;;;5112403;28;20028;-73
2021/07/17 04:48:04;;;;;;;12.27;8.57;;;589.70;2432.00;;;;;;5111858;28;20024;-73
2021/07/17 04:50:39;;;;;;;14.88;8.82;;;614.40;2432.00;;;;;;5112186;28;20072;-73
2021/07/17 04:53:05;;;;;;;10.68;7.80;;;614.40;2432.00;;;;;;5099038;28;20394;-73
2021/07/17 04:55:32;;;;;;;12.32;8.23;;;614.40;2432.00;;;;;;5112005;28;20027;-73
2021/07/17 04:57:59;;;;;;;10.75;8.85;;;614.40;2432.00;;;;;;5099215;28;20088;-73
2021/07/17 05:00:24;;;;;;;12.07;8.68;;;614.50;2432.00;;;;;;5095793;28;20016;-73
2021/07/17 05:02:52;;;;;;;11.77;8.50;;;614.60;2432.00;;;;;;5111906;28;20019;-73
2021/07/17 05:05:19;;;;;;;10.25;8.80;;;614.70;2432.00;;;;;;5114670;28;20081;-73
2021/07/17 05:07:46;;;;;;;11.48;8.25;;;614.90;2432.00;;;;;;5116837;28;20099;-74
2021/07/17 05:10:14;;;;;;;15.63;9.25;;;615.00;2432.00;;;;;;5116063;28;20024;-74
2021/07/17 05:12:39;;;;;;;11.45;9.30;;;640.00;2432.00;;;;;;5115763;28;20099;-73
2021/07/17 05:15:08;;;;;;;15.85;10.95;;;640.20;2432.00;;;;;;5109348;28;20047;-73
2021/07/17 05:17:34;;;;;;;18.17;10.25;;;640.40;2432.00;;;;;;5115951;28;20024;-74
2021/07/17 05:20:00;;;;;;;11.30;9.13;;;640.60;2432.00;;;;;;5116155;28;20397;-73
2021/07/17 05:22:26;;;;;;;11.32;8.48;;;640.80;2432.00;;;;;;5115620;28;20040;-74
2021/07/17 05:24:51;;;;;;;12.90;9.68;;;665.80;2432.00;;;;;;5096145;28;20048;-73
2021/07/17 05:27:17;;;;;;;11.13;9.48;;;665.80;2432.00;;;;;;5089765;28;20088;-73
2021/07/17 05:29:43;;;;;;;12.45;9.35;;;665.80;2432.00;;;;;;5115688;28;20032;-74
2021/07/17 05:32:09;;;;;;;17.75;10.30;;;665.90;2432.00;;;;;;5115725;28;20027;-73
2021/07/17 05:34:35;;;;;;;20.58;10.63;;;666.00;2432.00;;;;;;5115844;28;20031;-73
2021/07/17 05:37:01;;;;;;;21.50;9.80;;;665.90;2432.00;;;;;;5115345;28;20034;-74
2021/07/17 05:39:26;;;;;;;15.73;11.82;;;665.70;2432.00;;;;;;5115939;28;20028;-74
2021/07/17 05:41:52;;;;;;;14.50;10.27;;;665.60;2432.00;;;;;;5115490;28;20016;-73
2021/07/17 05:44:18;;;;;;;14.80;12.68;;;665.60;2432.00;;;;;;5115120;28;20176;-73
2021/07/17 05:46:44;;;;;;;16.65;11.88;;;665.60;2432.00;;;;;;5111411;28;20046;-73
2021/07/17 05:49:09;;;;;;;13.90;11.93;;;665.60;2432.00;;;;;;5114763;28;20424;-73
2021/07/17 05:51:35;;;;;;;14.35;11.98;;;665.60;2432.00;;;;;;5115123;28;20038;-73
2021/07/17 05:54:01;;;;;;;13.40;11.68;;;665.70;2432.00;;;;;;5105177;28;20157;-73
2021/07/17 05:56:26;;;;;;;19.88;11.93;;;640.90;2432.00;;;;;;5097037;28;20114;-73
2021/07/17 05:58:52;;;;;;;15.07;10.70;;;640.70;2432.00;;;;;;5114547;28;20020;-73
2021/07/17 06:01:18;;;;;;;17.10;11.60;;;640.60;2432.00;;;;;;5107826;28;20024;-73
2021/07/17 06:03:46;;;;;;;19.05;12.70;;;640.60;2432.00;;;;;;5112758;28;20446;-73
2021/07/17 06:06:12;;;;;;;18.42;12.02;;;640.40;2432.00;;;;;;5105866;28;20035;-73
2021/07/17 06:08:37;;;;;;;20.38;12.15;;;640.30;2432.00;;;;;;5114965;28;20031;-73
2021/07/17 06:11:03;;;;;;;13.07;11.00;;;640.50;2432.00;;;;;;5112175;28;20103;-74
2021/07/17 06:13:29;;;;;;;15.68;12.65;;;640.80;2432.00;;;;;;5109499;28;20019;-73
2021/07/17 06:15:54;;;;;;;15.82;11.32;;;665.90;2432.00;;;;;;5113868;28;20050;-73
2021/07/17 06:18:20;;;;;;;15.45;11.93;;;666.20;2432.00;;;;;;5114954;28;20023;-73
2021/07/17 06:20:46;;;;;;;13.82;10.55;;;666.30;2432.00;;;;;;5114333;28;20370;-74
2021/07/17 06:23:12;;;;;;;14.63;10.35;;;691.40;2432.00;;;;;;5114057;28;20031;-73
2021/07/17 06:25:38;;;;;;;21.35;11.77;;;691.50;2432.00;;;;;;5113564;28;20044;-73
2021/07/17 06:28:04;;;;;;;15.65;10.98;;;691.80;2432.00;;;;;;5114370;28;20026;-73
2021/07/17 06:30:30;;;;;;;12.32;9.98;;;692.00;2432.00;;;;;;5113415;28;20028;-73
2021/07/17 06:32:56;;;;;;;16.50;10.65;;;692.10;2432.00;;;;;;5095669;28;20024;-73
2021/07/17 06:35:22;;;;;;;15.57;11.60;;;716.90;2432.00;;;;;;5113145;28;20064;-73
2021/07/17 06:37:48;;;;;;;14.60;11.07;;;716.90;2432.00;;;;;;5113018;28;20028;-73
2021/07/17 06:40:16;;;;;;;11.23;9.82;;;691.90;2432.00;;;;;;5113731;28;20024;-73
2021/07/17 06:42:47;;;;;;;15.02;11.75;;;691.90;2432.00;;;;;;5112855;28;20020;-73
2021/07/17 06:45:14;;;;;;;15.40;11.15;;;716.80;2432.00;;;;;;5113772;28;20019;-74
2021/07/17 06:47:40;;;;;;;14.45;10.38;;;716.80;2432.00;;;;;;5112474;28;20027;-73
2021/07/17 06:50:07;;;;;;;11.93;10.25;;;691.80;2432.00;;;;;;5104053;28;20028;-71
2021/07/17 06:52:34;;;;;;;30.83;26.13;;;691.80;2432.00;;;;;;5103311;28;20386;-71
2021/07/17 06:55:00;;;;;;;14.82;11.75;;;716.80;2432.00;;;;;;5108038;28;20060;-71
2021/07/17 06:57:25;;;;;;;13.70;11.05;;;717.00;2432.00;;;;;;5106091;28;20443;-73
2021/07/17 06:59:51;;;;;;;11.90;9.13;;;716.90;2432.00;;;;;;5109409;28;20520;-74
2021/07/17 07:02:17;;;;;;;10.45;8.50;;;716.90;2432.00;;;;;;5101009;28;20052;-74
2021/07/17 07:04:42;;;;;;;11.00;9.80;;;691.90;2432.00;;;;;;5100986;28;20382;-73
2021/07/17 07:07:08;;;;;;;12.20;10.43;;;692.00;2432.00;;;;;;5104916;28;20546;-74
2021/07/17 07:09:34;;;;;;;12.18;9.68;;;716.90;2432.00;;;;;;5095466;28;20032;-74
2021/07/17 07:11:59;;;;;;;12.18;9.18;;;716.80;2432.00;;;;;;5099214;28;20024;-73
2021/07/17 07:14:25;;;;;;;12.45;9.52;;;716.80;2432.00;;;;;;5096481;28;20490;-73
2021/07/17 07:16:51;;;;;;;13.07;9.85;;;716.90;2432.00;;;;;;5112709;28;20051;-73
2021/07/17 07:19:17;;;;;;;22.13;13.82;;;717.00;2432.00;;;;;;5097768;28;20054;-72
2021/07/17 07:21:43;;;;;;;15.02;10.95;;;717.30;2432.00;;;;;;5104526;28;20489;-73
2021/07/17 07:24:09;;;;;;;35.30;31.63;;;717.40;2432.00;;;;;;5102953;28;20174;-72
2021/07/17 07:26:35;;;;;;;13.18;10.20;;;717.20;2432.00;;;;;;5105542;28;20410;-72
2021/07/17 07:29:01;;;;;;;20.48;12.15;;;717.10;2432.00;;;;;;5102324;28;20012;-73
2021/07/17 07:31:27;;;;;;;15.98;9.80;;;717.30;2432.00;;;;;;5088144;28;20034;-73
2021/07/17 07:33:53;;;;;;;13.85;10.88;;;717.70;2432.00;;;;;;5098899;28;20024;-74
2021/07/17 07:36:19;;;;;;;13.73;10.63;;;717.70;2432.00;;;;;;5101942;28;20474;-73
2021/07/17 07:38:45;;;;;;;15.15;10.77;;;742.40;2432.00;;;;;;5100969;28;20028;-73
2021/07/17 07:41:12;;;;;;;17.80;11.18;;;717.70;2432.00;;;;;;5104836;28;20494;-73
2021/07/17 07:43:38;;;;;;;12.48;9.93;;;717.70;2432.00;;;;;;5102572;28;20035;-73
2021/07/17 07:46:04;;;;;;;14.88;10.30;;;742.50;2432.00;;;;;;5103624;28;20016;-73
2021/07/17 07:48:30;;;;;;;10.88;9.63;;;742.70;2432.00;;;;;;5104386;28;20386;-73
2021/07/17 07:50:56;;;;;;;13.23;9.45;;;742.90;2432.00;;;;;;5105697;28;20051;-73
2021/07/17 07:53:22;;;;;;;13.60;9.52;;;742.90;2432.00;;;;;;5099729;28;20623;-73
2021/07/17 08:02:32;;;;;;;17.73;10.75;;;768.40;2432.00;;;;;;5097832;28;20539;-73
2021/07/17 08:04:57;;;;;;;11.23;9.35;;;768.40;2432.00;;;;;;5103013;28;20107;-73
2021/07/17 08:07:25;;;;;;;13.10;10.32;;;768.20;2432.00;;;;;;5090574;28;20030;-74
2021/07/17 08:09:51;;;;;;;12.75;11.43;;;768.30;2432.00;;;;;;5106254;28;20018;-74
2021/07/17 08:12:17;;;;;;;13.68;11.57;;;768.60;2432.00;;;;;;5103672;28;20027;-74
2021/07/17 08:14:42;;;;;;;11.18;9.55;;;768.90;2432.00;;;;;;5102181;28;20028;-74
2021/07/17 08:17:10;;;;;;;12.07;10.70;;;793.60;2432.00;;;;;;5107827;28;20046;-73
2021/07/17 08:19:35;;;;;;;15.25;9.80;;;794.10;2432.00;;;;;;5110691;28;20020;-74
2021/07/17 08:22:02;;;;;;;13.98;10.95;;;794.20;2432.00;;;;;;5111119;28;20097;-73
2021/07/17 08:24:27;;;;;;;12.10;10.38;;;794.30;2432.00;;;;;;5107318;28;20386;-74
2021/07/17 08:26:53;;;;;;;15.00;10.32;;;794.10;2432.00;;;;;;5108799;28;20026;-74
2021/07/17 08:29:19;;;;;;;12.63;9.60;;;793.90;2432.00;;;;;;5105424;28;20039;-73
2021/07/17 08:31:45;;;;;;;14.20;10.20;;;768.90;2432.00;;;;;;5101853;28;20035;-74
2021/07/17 08:34:11;;;;;;;14.15;9.02;;;793.60;2432.00;;;;;;5099597;28;20026;-73
2021/07/17 08:36:36;;;;;;;12.40;10.27;;;794.10;2432.00;;;;;;5106223;28;20024;-74
2021/07/17 08:39:03;;;;;;;12.93;10.20;;;793.80;2432.00;;;;;;5101562;28;20098;-74
2021/07/17 08:41:34;;;;;;;13.38;9.60;;;793.60;2432.00;;;;;;5103863;28;20082;-74
2021/07/17 08:44:00;;;;;;;11.80;8.27;;;768.90;2432.00;;;;;;5107675;28;20766;-73
2021/07/17 08:46:27;;;;;;;12.00;8.00;;;794.30;2432.00;;;;;;5106827;28;20046;-73
2021/07/17 08:48:55;;;;;;;10.65;9.52;;;819.70;2432.00;;;;;;5103660;28;20089;-74
2021/07/17 08:51:21;;;;;;;10.63;8.85;;;845.20;2432.00;;;;;;5100921;28;20050;-74
2021/07/17 08:53:48;;;;;;;9.70;8.73;;;845.70;2432.00;;;;;;5103088;28;20103;-73
2021/07/17 08:56:15;;;;;;;10.18;8.38;;;870.60;2432.00;;;;;;5104279;28;20030;-74
2021/07/17 08:58:41;;;;;;;11.57;8.70;;;871.10;2380.80;;;;;;5106059;28;20065;-74
2021/07/17 09:01:07;;;;;;;11.98;7.97;;;896.10;2329.60;;;;;;5090847;28;20024;-74
2021/07/17 09:03:32;;;;;;;13.35;9.38;;;896.20;2329.60;;;;;;5104698;28;20490;-74
2021/07/17 09:05:58;;;;;;;9.73;7.95;;;871.20;2304.00;;;;;;5106321;28;20031;-74
2021/07/17 09:08:24;;;;;;;13.20;8.93;;;896.00;2278.40;;;;;;5102743;28;20024;-74
2021/07/17 09:10:51;;;;;;;9.43;7.18;;;871.10;2278.40;;;;;;5108880;28;20027;-75
2021/07/17 09:13:18;;;;;;;12.57;7.15;;;896.10;2252.80;;;;;;5102824;28;20028;-75
2021/07/17 09:15:50;;;;;;;9.75;8.35;;;896.10;2227.20;;;;;;5102781;28;20032;-74
2021/07/17 09:18:28;;;;;;;11.02;8.90;;;896.50;2176.00;;;;;;5099203;28;20089;-74
2021/07/17 09:21:01;;;;;;;16.08;14.27;;;896.90;2150.40;;;;;;5101807;28;20017;-75
2021/07/17 09:23:28;;;;;;;14.65;12.02;;;896.50;2176.00;;;;;;5104020;28;20015;-74
2021/07/17 09:25:55;;;;;;;10.73;7.88;;;921.70;2150.40;;;;;;5105070;28;20613;-74
2021/07/17 09:28:30;;;;;;;9.35;8.25;;;922.10;2099.20;;;;;;5106776;28;20028;-73
2021/07/17 09:31:00;;;;;;;11.05;8.95;;;922.40;2073.60;;;;;;5100901;28;20395;-74
2021/07/17 09:33:29;;;;;;;12.88;11.57;;;947.40;2048.00;;;;;;5107457;28;20024;-74
2021/07/17 09:35:57;;;;;;;10.07;7.75;;;947.60;2022.40;;;;;;5104184;28;20016;-74
2021/07/17 09:38:29;;;;;;;11.73;9.48;;;948.00;1971.20;;;;;;5105690;28;20024;-74
2021/07/17 09:41:06;;;;;;;9.38;6.95;;;972.80;1945.60;;;;;;5105344;28;20428;-74
2021/07/17 09:43:33;;;;;;;11.68;6.85;;;947.60;1945.60;;;;;;5104635;28;20028;-73
2021/07/17 09:46:00;;;;;;;10.73;7.07;;;948.10;1894.40;;;;;;5081142;28;20047;-75
2021/07/17 09:48:35;;;;;;;9.70;6.88;;;973.00;1920.00;;;;;;5093573;28;20031;-75
2021/07/17 09:51:01;;;;;;;7.97;6.68;;;948.10;1894.40;;;;;;5106616;28;20173;-75
2021/07/17 09:53:54;;;;;;;13.13;9.13;;;948.10;1843.20;;;;;;5102038;28;20093;-75
2021/07/17 09:56:23;;;;;;;22.23;15.88;;;973.20;1868.80;;;;;;5105269;28;20024;-75
2021/07/17 09:58:49;;;;;;;9.15;7.35;;;973.40;1817.60;;;;;;5113760;28;20024;-75
2021/07/17 10:01:29;;;;;;;11.73;9.10;;;973.20;1843.20;;;;;;5107981;28;20088;-75
2021/07/17 10:04:05;;;;;;;12.18;8.73;;;973.30;1792.00;;;;;;5107235;28;20016;-76
2021/07/17 10:06:32;;;;;;;;;;;973.40;1766.40;;;;;;5104232;28;20084;-74
2021/07/17 10:09:03;;;;;;;8.85;6.90;;;973.70;1766.40;;;;;;5111012;28;20010;-76
2021/07/17 10:11:29;;;;;;;8.70;6.85;;;998.50;1740.80;;;;;;5105047;28;20386;-75
2021/07/17 10:13:55;;;;;;;17.25;6.78;;;998.50;1740.80;;;;;;5106009;28;20543;-76
2021/07/17 10:16:27;;;;;;;11.32;10.23;;;972.80;1715.20;;;;;;5102821;28;20051;-76
2021/07/17 10:18:55;;;;;;;10.30;7.97;;;947.70;1766.40;;;;;;5103299;28;20035;-73
2021/07/17 10:21:22;;;;;;;8.43;7.57;;;947.20;1792.00;;;;;;5101639;28;20378;-74
2021/07/17 10:23:49;;;;;;;11.63;8.75;;;947.20;1817.60;;;;;;5093194;28;20263;-74
2021/07/17 10:26:15;;;;;;;12.38;8.40;;;947.20;1792.00;;;;;;5108659;28;20031;-74
2021/07/17 10:28:41;;;;;;;14.75;8.40;;;947.20;1817.60;;;;;;5102528;28;20088;-74
2021/07/17 10:31:07;;;;;;;9.75;7.00;;;922.40;1792.00;;;;;;5102140;28;20028;-74
2021/07/17 10:33:34;;;;;;;10.73;7.72;;;947.30;1740.80;;;;;;5102788;28;20019;-76
2021/07/17 10:36:11;;;;;;;11.23;7.30;;;947.30;1766.40;;;;;;5109873;28;20127;-74
2021/07/17 10:38:43;;;;;;;9.75;8.05;;;947.20;1766.40;;;;;;5103709;28;20433;-75
2021/07/17 10:41:14;;;;;;;13.27;8.70;;;922.40;1792.00;;;;;;5103608;28;20035;-75
2021/07/17 10:43:41;;;;;;;11.15;6.60;;;921.80;1843.20;;;;;;5103865;28;20102;-75
2021/07/17 10:46:28;;;;;;;11.70;8.30;;;921.80;1817.60;;;;;;5101863;28;20352;-75
2021/07/17 10:48:56;;;;;;;13.65;10.10;;;921.70;1817.60;;;;;;5105534;28;20030;-74
2021/07/17 10:51:29;;;;;;;11.20;8.00;;;896.70;1792.00;;;;;;5104006;28;20062;-75
2021/07/17 10:53:58;;;;;;;15.95;11.95;;;922.30;1740.80;;;;;;5088824;28;20386;-74
2021/07/17 10:56:30;;;;;;;10.98;8.70;;;947.30;1715.20;;;;;;5102139;28;20102;-75
2021/07/17 10:58:58;;;;;;;12.18;8.60;;;947.90;1689.60;;;;;;5105583;28;20023;-75
2021/07/17 11:01:24;;;;;;;21.73;12.52;;;998.40;1664.00;;;;;;5103882;28;20028;-76
2021/07/17 11:03:51;;;;;;;18.50;13.10;;;998.70;1638.40;;;;;;5101762;28;20039;-76
2021/07/17 11:06:28;;;;;;;17.40;12.07;;;998.70;1638.40;;;;;;5101231;28;20943;-77
2021/07/17 11:08:56;;;;;;;12.95;8.02;;;973.40;1638.40;;;;;;5100490;28;20813;-75
2021/07/17 11:11:28;;;;;;;15.20;12.13;;;973.00;1664.00;;;;;;5105392;28;20028;-73
2021/07/17 11:13:55;;;;;;;15.05;11.02;;;947.90;1638.40;;;;;;5103776;28;20104;-74
2021/07/17 11:16:47;;;;;;;9.23;7.10;;;947.80;1664.00;;;;;;5098003;28;20128;-74
2021/07/17 11:19:22;;;;;;;11.32;7.70;;;948.00;1638.40;;;;;;5106956;28;20040;-74
2021/07/17 11:21:48;;;;;;;11.32;6.70;;;947.60;1638.40;;;;;;5106196;28;20019;-73
2021/07/17 11:24:15;;;;;;;12.95;7.53;;;947.50;1664.00;;;;;;5110079;28;20415;-73
2021/07/17 11:26:41;;;;;;;17.55;8.55;;;947.50;1689.60;;;;;;5107713;28;20011;-73
2021/07/17 11:29:11;;;;;;;14.10;8.02;;;947.30;1689.60;;;;;;5107292;28;20016;-73
2021/07/17 11:31:39;;;;;;;13.70;7.63;;;947.20;1689.60;;;;;;5107077;28;20024;-73
2021/07/17 11:34:11;;;;;;;11.55;8.95;;;922.20;1715.20;;;;;;5106923;28;20524;-73
2021/07/17 11:36:39;;;;;;;16.85;10.13;;;921.80;1715.20;;;;;;5109448;28;20019;-72
2021/07/17 11:39:06;;;;;;;8.93;6.43;;;922.00;1740.80;;;;;;5105770;28;20031;-72
2021/07/17 11:41:33;;;;;;;10.35;7.03;;;947.20;1664.00;;;;;;5108294;28;20051;-72
2021/07/17 11:43:59;;;;;;;10.32;6.05;;;947.70;1612.80;;;;;;5110963;28;20030;-73
2021/07/17 11:46:24;;;;;;;10.75;6.18;;;947.70;1587.20;;;;;;5110814;28;20023;-73
2021/07/17 11:49:06;;;;;;;9.40;6.13;;;947.20;1612.80;;;;;;5111289;28;20020;-73
2021/07/17 11:51:33;;;;;;;14.15;8.02;;;922.00;1664.00;;;;;;5107853;28;20040;-76
2021/07/17 11:54:00;;;;;;;12.95;9.13;;;921.60;1689.60;;;;;;5095544;28;20032;-72
2021/07/17 11:56:26;;;;;;;9.93;7.18;;;921.70;1689.60;;;;;;5095159;28;20024;-73
2021/07/17 11:59:15;;;;;;;10.65;6.72;;;922.00;1689.60;;;;;;5101092;28;20027;-73
2021/07/17 12:02:08;;;;;;;17.77;10.00;;;922.10;1664.00;;;;;;5095562;28;20055;-73
2021/07/17 12:04:37;;;;;;;11.82;8.35;;;922.50;1638.40;;;;;;5079032;28;20032;-72
2021/07/17 12:07:05;;;;;;;15.35;9.30;;;947.20;1638.40;;;;;;5099870;28;20398;-73
2021/07/17 12:09:55;;;;;;;10.18;6.72;;;947.30;1638.40;;;;;;5098514;28;20024;-73
2021/07/17 12:12:30;;;;;;;11.05;7.50;;;947.80;1612.80;;;;;;5025257;28;20041;-73
2021/07/17 12:14:59;;;;;;;11.50;6.22;;;998.40;1587.20;;;;;;5030067;28;20038;-73
2021/07/17 12:17:25;;;;;;;12.00;7.90;;;998.40;1561.60;;;;;;5025715;28;20131;-72
2021/07/17 12:20:09;;;;;;;14.30;7.72;;;973.50;1510.40;;;;;;5027378;28;20547;-73